createdAt,value
2023-02-18T00:01:24.054Z,10.69
2023-02-18T00:03:52.381Z,10.71
2023-02-18T00:06:22.364Z,10.73
2023-02-18T00:08:49.249Z,10.60
2023-02-18T00:11:16.871Z,10.75
2023-02-18T00:13:43.510Z,10.77
2023-02-18T00:16:12.321Z,10.76
2023-02-18T00:18:39.651Z,10.73
2023-02-18T00:21:08.396Z,10.67
2023-02-18T00:23:35.592Z,10.70
2023-02-18T00:26:12.194Z,10.67
2023-02-18T00:28:38.704Z,10.68
2023-02-18T00:31:11.080Z,10.69
2023-02-18T00:33:41.296Z,10.67
2023-02-18T00:36:11.195Z,10.60
2023-02-18T00:38:37.946Z,10.60
2023-02-18T00:41:05.105Z,10.39
2023-02-18T00:43:31.726Z,10.32
2023-02-18T00:45:58.378Z,10.54
2023-02-18T00:48:24.970Z,10.46
2023-02-18T00:50:51.541Z,10.40
2023-02-18T00:53:18.378Z,10.30
2023-02-18T00:55:47.924Z,10.21
2023-02-18T00:58:15.894Z,10.18
2023-02-18T01:00:44.027Z,10.10
2023-02-18T01:03:11.226Z,10.16
2023-02-18T01:05:38.830Z,10.00
2023-02-18T01:08:06.528Z,10.01
2023-02-18T01:10:34.540Z,9.98
2023-02-18T01:13:01.604Z,9.90
2023-02-18T01:15:28.437Z,9.90
2023-02-18T01:17:54.932Z,9.82
2023-02-18T01:20:21.700Z,9.56
2023-02-18T01:22:48.277Z,9.85
2023-02-18T01:25:18.267Z,9.66
2023-02-18T01:27:47.404Z,9.68
2023-02-18T01:30:16.281Z,9.75
2023-02-18T01:32:44.016Z,9.77
2023-02-18T01:35:13.264Z,9.64
2023-02-18T01:37:40.029Z,9.69
2023-02-18T01:40:07.484Z,9.71
2023-02-18T01:42:33.999Z,9.67
2023-02-18T01:45:34.896Z,9.55
2023-02-18T01:48:07.178Z,9.64
2023-02-18T01:50:35.996Z,9.39
2023-02-18T01:53:03.212Z,9.64
2023-02-18T01:55:29.742Z,9.72
2023-02-18T01:57:56.294Z,9.72
2023-02-18T02:00:23.178Z,9.73
2023-02-18T02:02:52.378Z,9.70
2023-02-18T02:05:22.139Z,9.55
2023-02-18T02:07:54.789Z,9.71
2023-02-18T02:10:22.732Z,9.62
2023-02-18T02:13:00.945Z,9.84
2023-02-18T02:15:37.944Z,9.91
2023-02-18T02:18:19.832Z,9.96
2023-02-18T02:21:03.298Z,9.91
2023-02-18T02:23:41.961Z,9.97
2023-02-18T02:26:18.820Z,10.05
2023-02-18T02:29:10.623Z,10.00
2023-02-18T02:31:59.038Z,9.99
2023-02-18T02:35:06.154Z,10.07
2023-02-18T02:37:46.785Z,10.11
2023-02-18T02:40:29.208Z,10.15
2023-02-18T02:43:19.048Z,10.15
2023-02-18T02:46:25.398Z,10.13
2023-02-18T02:49:00.898Z,10.14
2023-02-18T02:51:35.267Z,9.96
2023-02-18T02:54:18.257Z,9.89
2023-02-18T02:56:45.219Z,10.18
2023-02-18T02:59:20.474Z,10.20
2023-02-18T03:02:02.001Z,10.23
2023-02-18T03:04:44.554Z,10.19
2023-02-18T03:07:39.847Z,10.14
2023-02-18T03:10:28.228Z,10.17
2023-02-18T03:13:34.247Z,10.18
2023-02-18T03:16:10.456Z,10.26
2023-02-18T03:18:40.819Z,10.28
2023-02-18T03:21:25.293Z,10.27
2023-02-18T03:24:13.523Z,10.29
2023-02-18T03:26:47.175Z,10.28
2023-02-18T03:29:15.448Z,10.26
2023-02-18T03:31:46.319Z,10.32
2023-02-18T03:34:20.105Z,10.32
2023-02-18T03:36:47.337Z,10.33
2023-02-18T03:39:19.539Z,10.14
2023-02-18T03:41:47.854Z,10.28
2023-02-18T03:44:14.564Z,10.32
2023-02-18T03:46:44.409Z,10.34
2023-02-18T03:49:15.314Z,10.34
2023-02-18T03:51:42.991Z,10.31
2023-02-18T03:54:10.261Z,10.17
2023-02-18T03:56:37.711Z,10.32
2023-02-18T03:59:04.486Z,10.15
2023-02-18T04:01:32.715Z,10.34
2023-02-18T04:03:59.383Z,10.35
2023-02-18T04:06:26.001Z,10.37
2023-02-18T04:08:52.733Z,10.23
2023-02-18T04:11:19.342Z,10.21
2023-02-18T04:13:46.002Z,10.36
2023-02-18T04:16:15.927Z,10.38
2023-02-18T04:18:42.422Z,10.32
2023-02-18T04:21:08.925Z,10.33
2023-02-18T04:23:35.614Z,10.23
2023-02-18T04:26:02.523Z,10.27
2023-02-18T04:28:29.112Z,10.03
2023-02-18T04:30:55.727Z,10.20
2023-02-18T04:33:22.233Z,10.24
2023-02-18T04:35:48.785Z,10.17
2023-02-18T04:38:15.254Z,10.21
2023-02-18T04:40:43.662Z,10.18
2023-02-18T04:43:10.405Z,10.01
2023-02-18T04:45:36.925Z,10.19
2023-02-18T04:48:03.612Z,10.29
2023-02-18T04:50:30.063Z,10.29
2023-02-18T04:52:56.485Z,10.26
2023-02-18T04:55:23.066Z,10.24
2023-02-18T04:57:49.838Z,10.09
2023-02-18T05:00:19.065Z,10.20
2023-02-18T05:02:46.719Z,10.25
2023-02-18T05:05:14.621Z,10.24
2023-02-18T05:07:42.783Z,10.06
2023-02-18T05:10:16.790Z,10.13
2023-02-18T05:12:43.525Z,10.12
2023-02-18T05:15:10.420Z,10.30
2023-02-18T05:17:37.505Z,10.28
2023-02-18T05:20:04.523Z,10.29
2023-02-18T05:22:31.136Z,10.31
2023-02-18T05:24:57.727Z,10.33
2023-02-18T05:27:24.237Z,10.34
2023-02-18T05:29:50.721Z,10.36
2023-02-18T05:32:19.836Z,10.40
2023-02-18T05:34:46.289Z,10.11
2023-02-18T05:37:14.324Z,10.43
2023-02-18T05:39:41.565Z,10.44
2023-02-18T05:42:08.299Z,10.28
2023-02-18T05:44:35.135Z,10.32
2023-02-18T05:47:09.322Z,10.47
2023-02-18T05:49:38.798Z,10.54
2023-02-18T05:52:06.573Z,10.52
2023-02-18T05:54:34.155Z,10.55
2023-02-18T05:57:01.570Z,10.53
2023-02-18T05:59:28.426Z,10.52
2023-02-18T06:01:55.340Z,10.53
2023-02-18T06:04:22.192Z,10.54
2023-02-18T06:06:48.743Z,10.53
2023-02-18T06:09:15.529Z,10.51
2023-02-18T06:11:42.127Z,10.51
2023-02-18T06:14:09.773Z,10.51
2023-02-18T06:16:36.368Z,10.41
2023-02-18T06:19:03.399Z,10.46
2023-02-18T06:21:29.948Z,10.43
2023-02-18T06:23:56.517Z,10.46
2023-02-18T06:26:23.079Z,10.17
2023-02-18T06:28:49.555Z,10.23
2023-02-18T06:31:16.239Z,10.44
2023-02-18T06:33:43.100Z,10.26
2023-02-18T06:36:12.152Z,10.42
2023-02-18T06:38:47.851Z,10.28
2023-02-18T06:41:17.396Z,10.40
2023-02-18T06:43:48.439Z,10.28
2023-02-18T06:46:14.942Z,10.16
2023-02-18T06:48:41.462Z,10.13
2023-02-18T06:51:08.489Z,10.39
2023-02-18T06:53:39.046Z,10.34
2023-02-18T06:56:05.532Z,10.37
2023-02-18T06:58:32.004Z,10.30
2023-02-18T07:00:58.912Z,10.40
2023-02-18T07:03:25.561Z,10.38
2023-02-18T07:05:52.003Z,10.44
2023-02-18T07:08:26.971Z,10.26
2023-02-18T07:10:53.477Z,10.45
2023-02-18T07:13:19.925Z,10.40
2023-02-18T07:15:46.333Z,10.43
2023-02-18T07:18:12.913Z,10.38
2023-02-18T07:20:39.368Z,10.45
2023-02-18T07:23:05.782Z,10.43
2023-02-18T07:25:32.177Z,10.45
2023-02-18T07:27:58.603Z,10.49
2023-02-18T07:30:25.051Z,10.52
2023-02-18T07:32:51.516Z,10.60
2023-02-18T07:35:19.561Z,10.59
2023-02-18T07:37:47.790Z,10.65
2023-02-18T07:40:17.847Z,10.69
2023-02-18T07:42:44.425Z,10.71
2023-02-18T07:45:11.820Z,10.73
2023-02-18T07:47:38.433Z,10.78
2023-02-18T07:50:06.010Z,10.79
2023-02-18T07:52:33.628Z,10.79
2023-02-18T07:55:00.408Z,10.98
2023-02-18T07:57:26.936Z,10.85
2023-02-18T07:59:53.403Z,10.95
2023-02-18T08:02:23.618Z,10.69
2023-02-18T08:04:50.316Z,10.90
2023-02-18T08:07:18.466Z,10.76
2023-02-18T08:09:44.957Z,10.81
2023-02-18T08:12:11.373Z,10.84
2023-02-18T08:14:37.967Z,10.80
2023-02-18T08:17:04.390Z,10.72
2023-02-18T08:19:30.818Z,10.57
2023-02-18T08:22:00.774Z,10.57
2023-02-18T08:24:27.437Z,10.48
2023-02-18T08:27:00.919Z,10.56
2023-02-18T08:29:29.900Z,10.60
2023-02-18T08:31:58.171Z,10.59
2023-02-18T08:34:26.009Z,10.56
2023-02-18T08:36:52.460Z,10.58
2023-02-18T08:39:18.922Z,10.64
2023-02-18T08:41:45.319Z,10.61
2023-02-18T08:44:11.779Z,10.64
2023-02-18T08:46:38.284Z,10.65
2023-02-18T08:49:05.075Z,10.63
2023-02-18T08:51:31.821Z,10.43
2023-02-18T08:53:58.952Z,10.52
2023-02-18T08:56:25.787Z,10.53
2023-02-18T08:58:52.222Z,10.51
2023-02-18T09:01:18.749Z,10.51
2023-02-18T09:03:45.221Z,10.60
2023-02-18T09:06:12.394Z,10.58
2023-02-18T09:08:38.950Z,10.45
2023-02-18T09:11:05.963Z,10.53
2023-02-18T09:13:33.786Z,10.60
2023-02-18T09:16:12.629Z,10.56
2023-02-18T09:18:39.313Z,10.72
2023-02-18T09:21:08.289Z,10.61
2023-02-18T09:23:39.734Z,10.64
2023-02-18T09:26:07.936Z,10.62
2023-02-18T09:28:35.759Z,10.68
2023-02-18T09:31:13.470Z,10.69
2023-02-18T09:33:45.438Z,10.65
2023-02-18T09:36:12.594Z,10.71
2023-02-18T09:38:40.221Z,10.74
2023-02-18T09:41:13.925Z,10.56
2023-02-18T09:43:43.778Z,10.81
2023-02-18T09:46:22.032Z,10.73
2023-02-18T09:48:49.499Z,10.70
2023-02-18T09:51:17.089Z,10.76
2023-02-18T09:53:45.397Z,10.87
2023-02-18T09:56:16.261Z,10.79
2023-02-18T09:58:44.157Z,10.88
2023-02-18T10:01:30.609Z,10.92
2023-02-18T10:04:03.558Z,10.91
2023-02-18T10:06:33.392Z,11.05
2023-02-18T10:09:04.720Z,11.16
2023-02-18T10:11:37.975Z,11.26
2023-02-18T10:14:11.116Z,11.40
2023-02-18T10:16:37.850Z,11.25
2023-02-18T10:19:28.236Z,11.40
2023-02-18T10:21:55.990Z,11.53
2023-02-18T10:24:29.868Z,11.42
2023-02-18T10:26:57.330Z,11.30
2023-02-18T10:29:25.522Z,11.40
2023-02-18T10:32:23.374Z,11.37
2023-02-18T10:35:22.202Z,11.62
2023-02-18T10:38:09.853Z,11.68
2023-02-18T10:40:59.926Z,11.42
2023-02-18T10:43:56.499Z,11.44
2023-02-18T10:46:34.452Z,11.44
2023-02-18T10:49:25.551Z,11.50
2023-02-18T10:51:56.413Z,11.34
2023-02-18T10:54:25.706Z,11.65
2023-02-18T10:56:58.151Z,11.18
2023-02-18T10:59:27.763Z,11.26
2023-02-18T11:02:03.548Z,11.30
2023-02-18T11:04:42.396Z,11.47
2023-02-18T11:07:16.372Z,11.51
2023-02-18T11:10:26.409Z,11.72
2023-02-18T11:13:00.996Z,11.79
2023-02-18T11:15:29.148Z,11.80
2023-02-18T11:18:11.214Z,12.33
2023-02-18T11:20:39.584Z,11.54
2023-02-18T11:23:05.913Z,11.64
2023-02-18T11:25:36.132Z,11.64
2023-02-18T11:28:06.193Z,11.61
2023-02-18T11:30:43.525Z,11.60
2023-02-18T11:33:19.514Z,11.67
2023-02-18T11:35:51.944Z,11.89
2023-02-18T11:38:25.754Z,11.69
2023-02-18T11:41:00.131Z,11.70
2023-02-18T11:43:30.729Z,11.68
2023-02-18T11:46:11.280Z,11.84
2023-02-18T11:48:38.925Z,11.32
2023-02-18T11:51:07.251Z,11.37
2023-02-18T11:53:37.597Z,11.14
2023-02-18T11:56:05.893Z,11.22
2023-02-18T11:58:40.865Z,11.11
2023-02-18T12:01:15.579Z,10.97
2023-02-18T12:03:52.712Z,10.77
2023-02-18T12:06:24.812Z,11.04
2023-02-18T12:08:54.209Z,11.08
2023-02-18T12:11:32.069Z,10.99
2023-02-18T12:13:59.182Z,10.85
2023-02-18T12:16:57.033Z,10.62
2023-02-18T12:19:45.635Z,10.53
2023-02-18T12:22:24.695Z,10.35
2023-02-18T12:25:09.988Z,10.21
2023-02-18T12:27:48.309Z,10.14
2023-02-18T12:30:40.359Z,9.91
2023-02-18T12:33:22.133Z,9.98
2023-02-18T12:36:11.361Z,9.93
2023-02-18T12:38:52.475Z,9.78
2023-02-18T12:41:40.594Z,9.82
2023-02-18T12:44:28.632Z,9.80
2023-02-18T12:47:13.515Z,9.82
2023-02-18T12:50:18.046Z,9.78
2023-02-18T12:52:57.446Z,9.83
2023-02-18T12:55:37.047Z,9.77
2023-02-18T12:58:33.169Z,9.79
2023-02-18T13:01:19.114Z,9.71
2023-02-18T13:03:51.905Z,9.76
2023-02-18T13:06:28.475Z,9.82
2023-02-18T13:09:09.873Z,9.85
2023-02-18T13:11:54.774Z,9.80
2023-02-18T13:14:25.699Z,9.84
2023-02-18T13:16:54.955Z,9.93
2023-02-18T13:19:38.122Z,10.03
2023-02-18T13:22:09.654Z,10.13
2023-02-18T13:24:39.106Z,10.08
2023-02-18T13:27:24.904Z,10.00
2023-02-18T13:30:36.234Z,10.05
2023-02-18T13:33:19.854Z,9.98
2023-02-18T13:36:00.380Z,9.91
2023-02-18T13:38:35.537Z,9.95
2023-02-18T13:41:02.349Z,9.82
2023-02-18T13:43:31.893Z,9.84
2023-02-18T13:46:05.568Z,9.89
2023-02-18T13:48:33.955Z,9.79
2023-02-18T13:51:04.074Z,9.77
2023-02-18T13:53:42.686Z,9.73
2023-02-18T13:56:20.842Z,9.75
2023-02-18T13:58:59.576Z,9.77
2023-02-18T14:01:45.025Z,9.75
2023-02-18T14:04:39.721Z,9.76
2023-02-18T14:07:24.861Z,9.66
2023-02-18T14:09:53.520Z,9.66
2023-02-18T14:12:34.915Z,9.55
2023-02-18T14:15:02.128Z,9.57
2023-02-18T14:17:37.580Z,9.56
2023-02-18T14:20:03.976Z,9.59
2023-02-18T14:22:47.136Z,9.61
2023-02-18T14:25:35.168Z,9.68
2023-02-18T14:28:04.830Z,9.68
2023-02-18T14:30:42.234Z,9.64
2023-02-18T14:33:15.631Z,9.65
2023-02-18T14:36:06.215Z,9.72
2023-02-18T14:39:17.564Z,9.72
2023-02-18T14:41:56.407Z,9.77
2023-02-18T14:44:49.664Z,9.76
2023-02-18T14:47:45.943Z,9.74
2023-02-18T14:50:16.399Z,9.74
2023-02-18T14:52:47.870Z,9.67
2023-02-18T14:55:27.542Z,9.65
2023-02-18T14:58:02.860Z,9.49
2023-02-18T15:00:34.830Z,9.52
2023-02-18T15:03:02.071Z,9.57
2023-02-18T15:05:31.629Z,9.63
2023-02-18T15:08:18.322Z,9.58
2023-02-18T15:10:59.010Z,9.57
2023-02-18T15:13:31.540Z,9.57
2023-02-18T15:16:02.187Z,9.48
2023-02-18T15:18:35.423Z,9.50
2023-02-18T15:21:04.789Z,9.47
2023-02-18T15:23:34.969Z,9.51
2023-02-18T15:26:01.629Z,9.38
2023-02-18T15:28:30.586Z,9.42
2023-02-18T15:31:02.821Z,9.32
2023-02-18T15:33:29.714Z,9.38
2023-02-18T15:36:04.557Z,9.32
2023-02-18T15:38:31.308Z,9.35
2023-02-18T15:40:59.758Z,9.32
2023-02-18T15:43:30.238Z,9.29
2023-02-18T15:45:58.458Z,9.29
2023-02-18T15:48:33.371Z,9.31
2023-02-18T15:51:16.242Z,9.27
2023-02-18T15:53:47.294Z,9.06
2023-02-18T15:56:24.469Z,9.25
2023-02-18T15:58:50.884Z,9.28
2023-02-18T16:01:28.211Z,9.29
2023-02-18T16:03:55.640Z,9.33
2023-02-18T16:06:26.740Z,9.39
2023-02-18T16:09:19.386Z,9.33
2023-02-18T16:11:50.617Z,9.35
2023-02-18T16:14:27.184Z,9.33
2023-02-18T16:17:18.725Z,9.33
2023-02-18T16:20:33.330Z,9.35
2023-02-18T16:23:03.428Z,9.32
2023-02-18T16:25:43.108Z,9.29
2023-02-18T16:28:27.906Z,9.30
2023-02-18T16:30:54.576Z,9.27
2023-02-18T16:33:21.049Z,9.24
2023-02-18T16:35:50.224Z,9.25
2023-02-18T16:38:24.196Z,9.27
2023-02-18T16:40:51.957Z,9.25
2023-02-18T16:43:21.453Z,9.23
2023-02-18T16:45:54.745Z,9.23
2023-02-18T16:48:31.835Z,9.29
2023-02-18T16:51:04.766Z,9.25
2023-02-18T16:53:31.255Z,9.27
2023-02-18T16:55:57.752Z,9.31
2023-02-18T16:58:24.338Z,9.36
2023-02-18T17:00:52.466Z,9.39
2023-02-18T17:03:19.917Z,9.42
2023-02-18T17:05:46.939Z,9.37
2023-02-18T17:08:27.203Z,9.45
2023-02-18T17:10:56.374Z,9.48
2023-02-18T17:13:26.386Z,9.50
2023-02-18T17:15:55.009Z,9.48
2023-02-18T17:18:22.128Z,9.47
2023-02-18T17:20:50.248Z,9.52
2023-02-18T17:23:22.977Z,9.54
2023-02-18T17:25:50.858Z,9.51
2023-02-18T17:28:19.200Z,9.54
2023-02-18T17:30:56.490Z,9.49
2023-02-18T17:33:25.070Z,9.52
2023-02-18T17:35:51.676Z,9.52
2023-02-18T17:38:19.490Z,9.50
2023-02-18T17:40:46.008Z,9.54
2023-02-18T17:43:15.307Z,9.38
2023-02-18T17:45:49.785Z,9.48
2023-02-18T17:48:16.304Z,9.47
2023-02-18T17:50:42.854Z,9.50
2023-02-18T17:53:11.707Z,9.46
2023-02-18T17:55:38.905Z,9.49
2023-02-18T17:58:06.639Z,9.36
2023-02-18T18:00:36.482Z,9.44
2023-02-18T18:03:04.025Z,9.55
2023-02-18T18:05:33.567Z,9.53
2023-02-18T18:08:01.267Z,9.47
2023-02-18T18:10:32.149Z,9.49
2023-02-18T18:13:00.773Z,9.52
2023-02-18T18:15:42.170Z,9.53
2023-02-18T18:18:11.782Z,9.52
2023-02-18T18:20:39.837Z,9.51
2023-02-18T18:23:07.863Z,9.45
2023-02-18T18:25:39.993Z,9.48
2023-02-18T18:28:08.654Z,9.47
2023-02-18T18:30:38.368Z,9.50
2023-02-18T18:33:14.826Z,9.49
2023-02-18T18:35:41.531Z,9.44
2023-02-18T18:38:08.053Z,9.48
2023-02-18T18:40:34.779Z,9.46
2023-02-18T18:43:02.356Z,9.49
2023-02-18T18:45:32.536Z,9.37
2023-02-18T18:47:58.957Z,9.32
2023-02-18T18:50:28.562Z,9.31
2023-02-18T18:52:55.011Z,9.29
2023-02-18T18:55:33.686Z,9.24
2023-02-18T18:58:01.108Z,9.20
2023-02-18T19:00:34.109Z,9.18
2023-02-18T19:03:03.209Z,9.16
2023-02-18T19:05:37.215Z,9.08
2023-02-18T19:08:06.914Z,9.09
2023-02-18T19:10:39.688Z,9.12
2023-02-18T19:13:14.836Z,9.08
2023-02-18T19:15:41.273Z,9.12
2023-02-18T19:18:11.099Z,9.13
2023-02-18T19:20:37.630Z,9.16
2023-02-18T19:23:05.453Z,9.03
2023-02-18T19:25:31.946Z,9.19
2023-02-18T19:27:58.731Z,9.16
2023-02-18T19:30:31.560Z,9.19
2023-02-18T19:32:59.925Z,9.13
2023-02-18T19:35:27.619Z,9.11
2023-02-18T19:37:55.286Z,9.11
2023-02-18T19:40:25.248Z,9.16
2023-02-18T19:42:52.625Z,9.23
2023-02-18T19:45:19.734Z,9.27
2023-02-18T19:47:46.315Z,9.25
2023-02-18T19:50:16.238Z,9.24
2023-02-18T19:52:42.734Z,9.25
2023-02-18T19:55:13.094Z,9.26
2023-02-18T19:57:39.681Z,9.27
2023-02-18T20:00:10.393Z,9.27
2023-02-18T20:02:37.032Z,9.26
2023-02-18T20:05:03.573Z,9.25
2023-02-18T20:07:30.210Z,9.18
2023-02-18T20:09:56.846Z,9.22
2023-02-18T20:12:23.361Z,9.21
2023-02-18T20:14:51.183Z,9.18
2023-02-18T20:17:19.035Z,9.14
2023-02-18T20:19:45.550Z,9.13
2023-02-18T20:22:12.667Z,9.14
2023-02-18T20:24:42.488Z,9.15
2023-02-18T20:27:09.684Z,9.13
2023-02-18T20:29:36.417Z,9.14
2023-02-18T20:32:04.881Z,9.15
2023-02-18T20:34:32.823Z,9.19
2023-02-18T20:37:00.375Z,9.26
2023-02-18T20:39:27.345Z,9.29
2023-02-18T20:41:53.860Z,9.24
2023-02-18T20:44:22.235Z,9.23
2023-02-18T20:46:49.253Z,9.21
2023-02-18T20:49:18.806Z,9.22
2023-02-18T20:51:45.406Z,9.26
2023-02-18T20:54:15.945Z,9.18
2023-02-18T20:56:43.972Z,9.24
2023-02-18T20:59:16.422Z,9.25
2023-02-18T21:01:45.061Z,9.24
2023-02-18T21:04:13.770Z,9.26
2023-02-18T21:06:40.660Z,9.28
2023-02-18T21:09:07.539Z,9.13
2023-02-18T21:11:34.626Z,9.28
2023-02-18T21:14:01.548Z,9.17
2023-02-18T21:16:29.335Z,9.31
2023-02-18T21:18:55.966Z,9.28
2023-02-18T21:21:25.322Z,9.33
2023-02-18T21:23:52.530Z,9.32
2023-02-18T21:26:22.174Z,9.33
2023-02-18T21:28:50.857Z,9.28
2023-02-18T21:31:19.971Z,9.29
2023-02-18T21:33:46.786Z,9.33
2023-02-18T21:36:14.306Z,9.38
2023-02-18T21:38:42.990Z,9.42
2023-02-18T21:41:09.913Z,9.39
2023-02-18T21:43:36.508Z,9.47
2023-02-18T21:46:10.288Z,9.35
2023-02-18T21:48:55.078Z,9.31
2023-02-18T21:51:39.989Z,9.29
2023-02-18T21:54:06.518Z,9.24
2023-02-18T21:56:33.901Z,9.16
2023-02-18T21:59:00.386Z,9.09
2023-02-18T22:01:27.777Z,9.02
2023-02-18T22:03:55.639Z,9.02
2023-02-18T22:06:22.233Z,8.93
2023-02-18T22:08:48.761Z,8.95
2023-02-18T22:11:15.465Z,8.89
2023-02-18T22:13:41.896Z,8.82
2023-02-18T22:16:08.364Z,8.87
2023-02-18T22:18:34.925Z,8.86
2023-02-18T22:21:09.077Z,8.85
2023-02-18T22:23:37.531Z,8.88
2023-02-18T22:26:09.196Z,8.86
2023-02-18T22:28:35.850Z,8.93
2023-02-18T22:31:10.460Z,8.98
2023-02-18T22:33:37.340Z,8.97
2023-02-18T22:36:07.310Z,9.04
2023-02-18T22:38:36.893Z,9.01
2023-02-18T22:41:09.465Z,9.01
2023-02-18T22:43:36.396Z,8.99
2023-02-18T22:46:04.211Z,8.96
2023-02-18T22:48:32.552Z,8.97
2023-02-18T22:51:06.440Z,8.99
2023-02-18T22:53:33.660Z,9.01
2023-02-18T22:56:05.869Z,8.91
2023-02-18T22:58:32.635Z,9.04
2023-02-18T23:00:59.263Z,9.00
2023-02-18T23:03:27.601Z,8.99
2023-02-18T23:05:55.606Z,8.96
2023-02-18T23:08:22.877Z,8.96
2023-02-18T23:11:02.097Z,8.94
2023-02-18T23:13:28.693Z,8.96
2023-02-18T23:16:04.767Z,8.87
2023-02-18T23:18:32.798Z,8.85
2023-02-18T23:21:20.064Z,8.88
2023-02-18T23:23:56.392Z,8.88
2023-02-18T23:26:26.484Z,8.91
2023-02-18T23:28:54.287Z,8.91
2023-02-18T23:31:26.091Z,8.89
2023-02-18T23:33:57.673Z,8.93
2023-02-18T23:36:28.079Z,8.94
2023-02-18T23:38:59.469Z,8.94
2023-02-18T23:41:30.336Z,8.98
2023-02-18T23:43:57.379Z,9.03
2023-02-18T23:46:26.566Z,9.05
2023-02-18T23:48:53.119Z,9.05
2023-02-18T23:51:22.326Z,9.06
2023-02-18T23:53:49.645Z,9.10
2023-02-18T23:56:21.729Z,9.06
2023-02-18T23:58:57.349Z,8.83
